sensor_id;sensor_type;location;lat;lon;timestamp;pressure;altitude;pressure_sealevel;temperature;humidity
9257;BME280;4665;51.368;6.782;2023-04-07T00:01:20;101131.31;;;7.09;100.00
9257;BME280;4665;51.368;6.782;2023-04-07T00:03:46;101141.81;;;7.10;100.00
9257;BME280;4665;51.368;6.782;2023-04-07T00:06:11;101140.72;;;7.13;100.00
9257;BME280;4665;51.368;6.782;2023-04-07T00:08:37;101140.00;;;7.11;100.00
9257;BME280;4665;51.368;6.782;2023-04-07T00:11:03;101132.44;;;6.95;100.00
9257;BME280;4665;51.368;6.782;2023-04-07T00:13:28;101148.56;;;7.03;100.00
9257;BME280;4665;51.368;6.782;2023-04-07T00:15:54;101153.34;;;7.09;100.00
9257;BME280;4665;51.368;6.782;2023-04-07T00:18:19;101135.19;;;7.05;100.00
9257;BME280;4665;51.368;6.782;2023-04-07T00:20:44;101141.09;;;7.08;100.00
9257;BME280;4665;51.368;6.782;2023-04-07T00:23:10;101149.75;;;7.10;100.00
9257;BME280;4665;51.368;6.782;2023-04-07T00:25:35;101148.06;;;7.09;100.00
9257;BME280;4665;51.368;6.782;2023-04-07T00:28:00;101153.34;;;7.09;100.00
9257;BME280;4665;51.368;6.782;2023-04-07T00:30:26;101142.19;;;7.06;100.00
9257;BME280;4665;51.368;6.782;2023-04-07T00:32:51;101134.34;;;7.04;100.00
9257;BME280;4665;51.368;6.782;2023-04-07T00:35:17;101128.44;;;7.01;100.00
9257;BME280;4665;51.368;6.782;2023-04-07T00:37:42;101141.91;;;7.09;100.00
9257;BME280;4665;51.368;6.782;2023-04-07T00:40:08;101133.13;;;7.08;100.00
9257;BME280;4665;51.368;6.782;2023-04-07T00:42:34;101139.38;;;7.07;100.00
9257;BME280;4665;51.368;6.782;2023-04-07T00:44:59;101122.06;;;7.03;100.00
9257;BME280;4665;51.368;6.782;2023-04-07T00:47:25;101136.72;;;7.07;100.00
9257;BME280;4665;51.368;6.782;2023-04-07T00:49:50;101130.50;;;7.08;100.00
9257;BME280;4665;51.368;6.782;2023-04-07T00:52:16;101129.41;;;7.11;100.00
9257;BME280;4665;51.368;6.782;2023-04-07T00:54:43;101132.50;;;7.16;100.00
9257;BME280;4665;51.368;6.782;2023-04-07T00:57:10;101131.66;;;7.15;100.00
9257;BME280;4665;51.368;6.782;2023-04-07T00:59:35;101126.22;;;7.17;100.00
9257;BME280;4665;51.368;6.782;2023-04-07T01:02:07;101121.19;;;7.14;100.00
9257;BME280;4665;51.368;6.782;2023-04-07T01:04:49;101129.50;;;7.21;100.00
9257;BME280;4665;51.368;6.782;2023-04-07T01:07:26;101125.84;;;7.22;100.00
9257;BME280;4665;51.368;6.782;2023-04-07T01:09:57;101132.75;;;7.24;100.00
9257;BME280;4665;51.368;6.782;2023-04-07T01:12:56;101125.63;;;7.25;100.00
9257;BME280;4665;51.368;6.782;2023-04-07T01:15:23;101122.00;;;7.26;100.00
9257;BME280;4665;51.368;6.782;2023-04-07T01:17:56;101123.69;;;7.27;100.00
9257;BME280;4665;51.368;6.782;2023-04-07T01:20:26;101121.78;;;7.29;100.00
9257;BME280;4665;51.368;6.782;2023-04-07T01:22:56;101124.28;;;7.30;100.00
9257;BME280;4665;51.368;6.782;2023-04-07T01:25:58;101125.00;;;7.32;100.00
9257;BME280;4665;51.368;6.782;2023-04-07T01:31:14;101126.81;;;7.32;100.00
9257;BME280;4665;51.368;6.782;2023-04-07T01:33:43;101114.28;;;7.34;100.00
9257;BME280;4665;51.368;6.782;2023-04-07T01:36:09;101116.09;;;7.33;100.00
9257;BME280;4665;51.368;6.782;2023-04-07T01:38:36;101125.59;;;7.36;100.00
9257;BME280;4665;51.368;6.782;2023-04-07T01:41:03;101125.47;;;7.37;100.00
9257;BME280;4665;51.368;6.782;2023-04-07T01:43:30;101119.94;;;7.41;100.00
9257;BME280;4665;51.368;6.782;2023-04-07T01:45:56;101121.84;;;7.38;100.00
9257;BME280;4665;51.368;6.782;2023-04-07T01:48:22;101123.53;;;7.40;100.00
9257;BME280;4665;51.368;6.782;2023-04-07T01:50:49;101124.34;;;7.40;100.00
9257;BME280;4665;51.368;6.782;2023-04-07T01:53:15;101122.44;;;7.42;100.00
9257;BME280;4665;51.368;6.782;2023-04-07T01:55:42;101116.63;;;7.48;100.00
9257;BME280;4665;51.368;6.782;2023-04-07T01:58:08;101127.69;;;7.53;100.00
9257;BME280;4665;51.368;6.782;2023-04-07T02:00:33;101120.09;;;7.60;100.00
9257;BME280;4665;51.368;6.782;2023-04-07T02:03:05;101124.28;;;7.63;100.00
9257;BME280;4665;51.368;6.782;2023-04-07T02:05:32;101119.31;;;7.69;100.00
9257;BME280;4665;51.368;6.782;2023-04-07T02:08:04;101122.63;;;7.83;100.00
9257;BME280;4665;51.368;6.782;2023-04-07T02:10:32;101121.09;;;7.80;100.00
9257;BME280;4665;51.368;6.782;2023-04-07T02:13:00;101123.47;;;7.83;100.00
9257;BME280;4665;51.368;6.782;2023-04-07T02:15:29;101126.97;;;7.84;100.00
9257;BME280;4665;51.368;6.782;2023-04-07T02:17:57;101126.97;;;7.84;100.00
9257;BME280;4665;51.368;6.782;2023-04-07T02:20:23;101110.53;;;7.90;100.00
9257;BME280;4665;51.368;6.782;2023-04-07T02:22:49;101115.53;;;7.83;100.00
9257;BME280;4665;51.368;6.782;2023-04-07T02:25:29;101127.78;;;7.84;100.00
9257;BME280;4665;51.368;6.782;2023-04-07T02:27:56;101126.97;;;7.84;100.00
9257;BME280;4665;51.368;6.782;2023-04-07T02:30:22;101128.06;;;7.81;100.00
9257;BME280;4665;51.368;6.782;2023-04-07T02:32:48;101128.06;;;7.81;100.00
9257;BME280;4665;51.368;6.782;2023-04-07T02:35:14;101128.91;;;7.82;100.00
9257;BME280;4665;51.368;6.782;2023-04-07T02:37:41;101130.72;;;7.81;100.00
9257;BME280;4665;51.368;6.782;2023-04-07T02:40:07;101124.56;;;7.80;100.00
9257;BME280;4665;51.368;6.782;2023-04-07T02:42:33;101117.00;;;7.76;100.00
9257;BME280;4665;51.368;6.782;2023-04-07T02:44:58;101131.44;;;7.83;100.00
9257;BME280;4665;51.368;6.782;2023-04-07T02:47:24;101131.69;;;7.80;100.00
9257;BME280;4665;51.368;6.782;2023-04-07T02:49:49;101136.13;;;7.79;100.00
9257;BME280;4665;51.368;6.782;2023-04-07T02:52:15;101125.47;;;7.70;100.00
9257;BME280;4665;51.368;6.782;2023-04-07T02:54:41;101132.47;;;7.71;100.00
9257;BME280;4665;51.368;6.782;2023-04-07T02:57:06;101135.69;;;7.74;100.00
9257;BME280;4665;51.368;6.782;2023-04-07T02:59:32;101134.41;;;7.69;100.00
9257;BME280;4665;51.368;6.782;2023-04-07T03:01:57;101126.00;;;7.64;100.00
9257;BME280;4665;51.368;6.782;2023-04-07T03:04:22;101132.97;;;7.65;100.00
9257;BME280;4665;51.368;6.782;2023-04-07T03:06:48;101121.19;;;7.57;100.00
9257;BME280;4665;51.368;6.782;2023-04-07T03:09:13;101126.38;;;7.59;100.00
9257;BME280;4665;51.368;6.782;2023-04-07T03:11:39;101142.59;;;7.66;100.00
9257;BME280;4665;51.368;6.782;2023-04-07T03:14:05;101149.47;;;7.68;100.00
9257;BME280;4665;51.368;6.782;2023-04-07T03:16:31;101127.31;;;7.58;100.00
9257;BME280;4665;51.368;6.782;2023-04-07T03:18:56;101144.28;;;7.67;100.00
9257;BME280;4665;51.368;6.782;2023-04-07T03:21:22;101141.81;;;7.75;100.00
9257;BME280;4665;51.368;6.782;2023-04-07T03:23:47;101143.31;;;7.68;100.00
9257;BME280;4665;51.368;6.782;2023-04-07T03:26:13;101140.91;;;7.65;100.00
9257;BME280;4665;51.368;6.782;2023-04-07T03:28:38;101136.72;;;7.62;100.00
9257;BME280;4665;51.368;6.782;2023-04-07T03:31:03;101146.56;;;7.71;100.00
9257;BME280;4665;51.368;6.782;2023-04-07T03:33:29;101139.25;;;7.64;100.00
9257;BME280;4665;51.368;6.782;2023-04-07T03:35:54;101150.69;;;7.64;100.00
9257;BME280;4665;51.368;6.782;2023-04-07T03:38:19;101153.44;;;7.63;100.00
9257;BME280;4665;51.368;6.782;2023-04-07T03:40:45;101150.81;;;7.63;100.00
9257;BME280;4665;51.368;6.782;2023-04-07T03:43:11;101155.28;;;7.62;100.00
9257;BME280;4665;51.368;6.782;2023-04-07T03:45:39;101137.81;;;7.59;100.00
9257;BME280;4665;51.368;6.782;2023-04-07T03:48:04;101145.25;;;7.66;100.00
9257;BME280;4665;51.368;6.782;2023-04-07T03:50:30;101142.13;;;7.61;100.00
9257;BME280;4665;51.368;6.782;2023-04-07T03:52:55;101150.81;;;7.63;100.00
9257;BME280;4665;51.368;6.782;2023-04-07T03:55:21;101138.03;;;7.56;100.00
9257;BME280;4665;51.368;6.782;2023-04-07T03:57:47;101132.53;;;7.48;100.00
9257;BME280;4665;51.368;6.782;2023-04-07T04:00:12;101141.69;;;7.55;100.00
9257;BME280;4665;51.368;6.782;2023-04-07T04:02:38;101150.34;;;7.57;100.00
9257;BME280;4665;51.368;6.782;2023-04-07T04:05:03;101140.38;;;7.50;100.00
9257;BME280;4665;51.368;6.782;2023-04-07T04:07:29;101139.13;;;7.54;100.00
9257;BME280;4665;51.368;6.782;2023-04-07T04:09:54;101158.88;;;7.61;100.00
9257;BME280;4665;51.368;6.782;2023-04-07T04:12:20;101145.88;;;7.58;100.00
9257;BME280;4665;51.368;6.782;2023-04-07T04:14:45;101151.44;;;7.55;100.00
9257;BME280;4665;51.368;6.782;2023-04-07T04:17:10;101160.22;;;7.55;100.00
9257;BME280;4665;51.368;6.782;2023-04-07T04:19:36;101172.41;;;7.58;100.00
9257;BME280;4665;51.368;6.782;2023-04-07T04:22:01;101151.38;;;7.45;100.00
9257;BME280;4665;51.368;6.782;2023-04-07T04:24:27;101171.19;;;7.62;100.00
9257;BME280;4665;51.368;6.782;2023-04-07T04:26:52;101168.06;;;7.57;100.00
9257;BME280;4665;51.368;6.782;2023-04-07T04:29:17;101174.94;;;7.59;100.00
9257;BME280;4665;51.368;6.782;2023-04-07T04:31:43;101161.22;;;7.54;100.00
9257;BME280;4665;51.368;6.782;2023-04-07T04:34:08;101170.34;;;7.62;100.00
9257;BME280;4665;51.368;6.782;2023-04-07T04:36:33;101165.78;;;7.52;100.00
9257;BME280;4665;51.368;6.782;2023-04-07T04:38:59;101168.31;;;7.54;100.00
9257;BME280;4665;51.368;6.782;2023-04-07T04:41:24;101166.28;;;7.46;100.00
9257;BME280;4665;51.368;6.782;2023-04-07T04:43:49;101171.59;;;7.46;100.00
9257;BME280;4665;51.368;6.782;2023-04-07T04:46:16;101188.41;;;7.56;100.00
9257;BME280;4665;51.368;6.782;2023-04-07T04:48:41;101191.31;;;7.53;100.00
9257;BME280;4665;51.368;6.782;2023-04-07T04:51:06;101191.31;;;7.65;100.00
9257;BME280;4665;51.368;6.782;2023-04-07T04:53:32;101182.16;;;7.57;100.00
9257;BME280;4665;51.368;6.782;2023-04-07T04:55:57;101200.13;;;7.54;100.00
9257;BME280;4665;51.368;6.782;2023-04-07T04:58:22;101197.34;;;7.55;100.00
9257;BME280;4665;51.368;6.782;2023-04-07T05:00:48;101182.81;;;7.50;100.00
9257;BME280;4665;51.368;6.782;2023-04-07T05:03:13;101193.97;;;7.53;100.00
9257;BME280;4665;51.368;6.782;2023-04-07T05:05:38;101195.06;;;7.51;100.00
9257;BME280;4665;51.368;6.782;2023-04-07T05:08:04;101197.84;;;7.49;100.00
9257;BME280;4665;51.368;6.782;2023-04-07T05:10:30;101204.84;;;7.50;100.00
9257;BME280;4665;51.368;6.782;2023-04-07T05:12:55;101206.78;;;7.48;100.00
9257;BME280;4665;51.368;6.782;2023-04-07T05:15:21;101206.50;;;7.51;100.00
9257;BME280;4665;51.368;6.782;2023-04-07T05:17:46;101212.06;;;7.48;100.00
9257;BME280;4665;51.368;6.782;2023-04-07T05:20:15;101207.25;;;7.53;100.00
9257;BME280;4665;51.368;6.782;2023-04-07T05:22:41;101212.06;;;7.48;100.00
9257;BME280;4665;51.368;6.782;2023-04-07T05:25:06;101198.34;;;7.43;100.00
9257;BME280;4665;51.368;6.782;2023-04-07T05:27:32;101215.72;;;7.47;100.00
9257;BME280;4665;51.368;6.782;2023-04-07T05:29:57;101213.53;;;7.41;100.00
9257;BME280;4665;51.368;6.782;2023-04-07T05:32:23;101199.94;;;7.34;100.00
9257;BME280;4665;51.368;6.782;2023-04-07T05:34:48;101197.66;;;7.30;100.00
9257;BME280;4665;51.368;6.782;2023-04-07T05:37:14;101201.03;;;7.32;100.00
9257;BME280;4665;51.368;6.782;2023-04-07T05:39:40;101214.75;;;7.37;100.00
9257;BME280;4665;51.368;6.782;2023-04-07T05:42:05;101204.63;;;7.31;100.00
9257;BME280;4665;51.368;6.782;2023-04-07T05:44:30;101226.31;;;7.47;100.00
9257;BME280;4665;51.368;6.782;2023-04-07T05:46:56;101201.03;;;7.32;100.00
9257;BME280;4665;51.368;6.782;2023-04-07T05:49:21;101217.75;;;7.32;100.00
9257;BME280;4665;51.368;6.782;2023-04-07T05:51:47;101228.72;;;7.39;100.00
9257;BME280;4665;51.368;6.782;2023-04-07T05:54:12;101230.16;;;7.43;100.00
9257;BME280;4665;51.368;6.782;2023-04-07T05:56:37;101220.88;;;7.37;100.00
9257;BME280;4665;51.368;6.782;2023-04-07T05:59:03;101235.81;;;7.50;100.00
9257;BME280;4665;51.368;6.782;2023-04-07T06:01:28;101231.84;;;7.44;100.00
9257;BME280;4665;51.368;6.782;2023-04-07T06:03:54;101236.91;;;7.47;100.00
9257;BME280;4665;51.368;6.782;2023-04-07T06:06:19;101246.53;;;7.48;100.00
9257;BME280;4665;51.368;6.782;2023-04-07T06:08:45;101241.69;;;7.53;100.00
9257;BME280;4665;51.368;6.782;2023-04-07T06:11:11;101241.50;;;7.45;100.00
9257;BME280;4665;51.368;6.782;2023-04-07T06:13:36;101247.88;;;7.43;100.00
9257;BME280;4665;51.368;6.782;2023-04-07T06:16:02;101252.69;;;7.37;100.00
9257;BME280;4665;51.368;6.782;2023-04-07T06:18:27;101250.03;;;7.37;100.00
9257;BME280;4665;51.368;6.782;2023-04-07T06:20:52;101252.69;;;7.37;100.00
9257;BME280;4665;51.368;6.782;2023-04-07T06:23:18;101253.66;;;7.36;100.00
9257;BME280;4665;51.368;6.782;2023-04-07T06:25:43;101249.94;;;7.39;100.00
9257;BME280;4665;51.368;6.782;2023-04-07T06:28:09;101250.41;;;7.33;100.00
9257;BME280;4665;51.368;6.782;2023-04-07T06:30:35;101248.00;;;7.30;100.00
9257;BME280;4665;51.368;6.782;2023-04-07T06:33:00;101263.19;;;7.39;100.00
9257;BME280;4665;51.368;6.782;2023-04-07T06:35:26;101266.09;;;7.36;100.00
9257;BME280;4665;51.368;6.782;2023-04-07T06:37:52;101261.63;;;7.36;100.00
9257;BME280;4665;51.368;6.782;2023-04-07T06:40:17;101262.81;;;7.44;100.00
9257;BME280;4665;51.368;6.782;2023-04-07T06:42:42;101257.88;;;7.39;100.00
9257;BME280;4665;51.368;6.782;2023-04-07T06:45:08;101264.63;;;7.43;100.00
9257;BME280;4665;51.368;6.782;2023-04-07T06:47:34;101256.06;;;7.28;100.00
9257;BME280;4665;51.368;6.782;2023-04-07T06:49:59;101265.84;;;7.39;100.00
9257;BME280;4665;51.368;6.782;2023-04-07T06:52:25;101262.94;;;7.31;100.00
9257;BME280;4665;51.368;6.782;2023-04-07T06:54:50;101276.44;;;7.50;100.00
9257;BME280;4665;51.368;6.782;2023-04-07T06:57:15;101268.13;;;7.44;100.00
9257;BME280;4665;51.368;6.782;2023-04-07T06:59:41;101277.38;;;7.49;100.00
9257;BME280;4665;51.368;6.782;2023-04-07T07:02:06;101272.31;;;7.46;100.00
9257;BME280;4665;51.368;6.782;2023-04-07T07:04:33;101288.69;;;7.51;100.00
9257;BME280;4665;51.368;6.782;2023-04-07T07:06:59;101296.66;;;7.51;100.00
9257;BME280;4665;51.368;6.782;2023-04-07T07:09:25;101288.22;;;7.57;100.00
9257;BME280;4665;51.368;6.782;2023-04-07T07:11:51;101284.97;;;7.54;100.00
9257;BME280;4665;51.368;6.782;2023-04-07T07:14:17;101287.88;;;7.51;100.00
9257;BME280;4665;51.368;6.782;2023-04-07T07:16:42;101294.84;;;7.52;100.00
9257;BME280;4665;51.368;6.782;2023-04-07T07:19:07;101294.63;;;7.55;100.00
9257;BME280;4665;51.368;6.782;2023-04-07T07:21:33;101296.75;;;7.61;100.00
9257;BME280;4665;51.368;6.782;2023-04-07T07:23:59;101290.13;;;7.67;100.00
9257;BME280;4665;51.368;6.782;2023-04-07T07:26:25;101297.97;;;7.68;100.00
9257;BME280;4665;51.368;6.782;2023-04-07T07:28:51;101304.13;;;7.69;100.00
9257;BME280;4665;51.368;6.782;2023-04-07T07:31:16;101301.94;;;7.63;100.00
9257;BME280;4665;51.368;6.782;2023-04-07T07:33:42;101299.91;;;7.66;100.00
9257;BME280;4665;51.368;6.782;2023-04-07T07:36:09;101310.00;;;7.72;100.00
9257;BME280;4665;51.368;6.782;2023-04-07T07:38:35;101312.56;;;7.74;100.00
9257;BME280;4665;51.368;6.782;2023-04-07T07:41:01;101317.59;;;7.66;100.00
9257;BME280;4665;51.368;6.782;2023-04-07T07:43:27;101312.81;;;7.71;100.00
9257;BME280;4665;51.368;6.782;2023-04-07T07:45:52;101314.00;;;7.78;100.00
9257;BME280;4665;51.368;6.782;2023-04-07T07:48:17;101317.38;;;7.69;100.00
9257;BME280;4665;51.368;6.782;2023-04-07T07:50:43;101318.34;;;7.68;100.00
9257;BME280;4665;51.368;6.782;2023-04-07T07:53:09;101319.19;;;7.68;100.00
9257;BME280;4665;51.368;6.782;2023-04-07T07:55:34;101322.69;;;7.69;100.00
9257;BME280;4665;51.368;6.782;2023-04-07T07:58:00;101331.13;;;7.63;100.00
9257;BME280;4665;51.368;6.782;2023-04-07T08:00:27;101331.84;;;7.65;100.00
9257;BME280;4665;51.368;6.782;2023-04-07T08:02:53;101333.78;;;7.63;100.00
9257;BME280;4665;51.368;6.782;2023-04-07T08:05:19;101341.47;;;7.66;100.00
9257;BME280;4665;51.368;6.782;2023-04-07T08:07:45;101336.44;;;7.63;100.00
9257;BME280;4665;51.368;6.782;2023-04-07T08:10:11;101340.41;;;7.68;100.00
9257;BME280;4665;51.368;6.782;2023-04-07T08:12:36;101337.03;;;7.77;100.00
9257;BME280;4665;51.368;6.782;2023-04-07T08:15:02;101341.72;;;7.74;100.00
9257;BME280;4665;51.368;6.782;2023-04-07T08:17:27;101349.22;;;7.69;100.00
9257;BME280;4665;51.368;6.782;2023-04-07T08:19:53;101349.94;;;7.71;100.00
9257;BME280;4665;51.368;6.782;2023-04-07T08:22:18;101343.19;;;7.67;100.00
9257;BME280;4665;51.368;6.782;2023-04-07T08:24:45;101353.16;;;7.74;100.00
9257;BME280;4665;51.368;6.782;2023-04-07T08:27:11;101356.66;;;7.75;100.00
9257;BME280;4665;51.368;6.782;2023-04-07T08:29:37;101353.91;;;7.76;100.00
9257;BME280;4665;51.368;6.782;2023-04-07T08:32:02;101358.47;;;7.74;100.00
9257;BME280;4665;51.368;6.782;2023-04-07T08:34:27;101362.81;;;7.75;100.00
9257;BME280;4665;51.368;6.782;2023-04-07T08:36:53;101359.56;;;7.72;100.00
9257;BME280;4665;51.368;6.782;2023-04-07T08:39:18;101365.34;;;7.77;100.00
9257;BME280;4665;51.368;6.782;2023-04-07T08:41:45;101373.81;;;7.82;100.00
9257;BME280;4665;51.368;6.782;2023-04-07T08:44:14;101378.97;;;7.84;100.00
9257;BME280;4665;51.368;6.782;2023-04-07T08:46:40;101368.50;;;7.82;100.00
9257;BME280;4665;51.368;6.782;2023-04-07T08:49:10;101381.41;;;7.87;100.00
9257;BME280;4665;51.368;6.782;2023-04-07T08:51:45;101379.22;;;7.92;100.00
9257;BME280;4665;51.368;6.782;2023-04-07T08:54:14;101382.69;;;7.81;100.00
9257;BME280;4665;51.368;6.782;2023-04-07T08:56:41;101384.41;;;7.82;100.00
9257;BME280;4665;51.368;6.782;2023-04-07T08:59:12;101373.31;;;7.77;100.00
9257;BME280;4665;51.368;6.782;2023-04-07T09:01:38;101375.47;;;7.83;100.00
9257;BME280;4665;51.368;6.782;2023-04-07T09:04:05;101368.84;;;7.77;100.00
9257;BME280;4665;51.368;6.782;2023-04-07T09:06:34;101379.22;;;7.80;100.00
9257;BME280;4665;51.368;6.782;2023-04-07T09:09:01;101375.22;;;7.75;100.00
9257;BME280;4665;51.368;6.782;2023-04-07T09:11:27;101392.22;;;7.84;100.00
9257;BME280;4665;51.368;6.782;2023-04-07T09:13:53;101389.94;;;7.79;100.00
9257;BME280;4665;51.368;6.782;2023-04-07T09:16:19;101391.50;;;7.93;100.00
9257;BME280;4665;51.368;6.782;2023-04-07T09:18:45;101388.94;;;7.91;100.00
9257;BME280;4665;51.368;6.782;2023-04-07T09:21:11;101391.13;;;7.86;100.00
9257;BME280;4665;51.368;6.782;2023-04-07T09:23:38;101382.09;;;7.89;100.00
9257;BME280;4665;51.368;6.782;2023-04-07T09:28:53;101402.94;;;7.93;100.00
9257;BME280;4665;51.368;6.782;2023-04-07T09:31:22;101395.22;;;8.01;100.00
9257;BME280;4665;51.368;6.782;2023-04-07T09:33:51;101399.56;;;8.02;100.00
9257;BME280;4665;51.368;6.782;2023-04-07T09:36:17;101392.22;;;7.95;100.00
9257;BME280;4665;51.368;6.782;2023-04-07T09:38:43;101395.97;;;8.04;100.00
9257;BME280;4665;51.368;6.782;2023-04-07T09:41:10;101385.09;;;8.07;100.00
9257;BME280;4665;51.368;6.782;2023-04-07T09:43:41;101392.78;;;8.10;100.00
9257;BME280;4665;51.368;6.782;2023-04-07T09:46:07;101387.25;;;8.13;100.00
9257;BME280;4665;51.368;6.782;2023-04-07T09:48:32;101399.69;;;8.12;100.00
9257;BME280;4665;51.368;6.782;2023-04-07T09:51:15;101396.78;;;8.15;100.00
9257;BME280;4665;51.368;6.782;2023-04-07T09:53:50;101393.88;;;8.18;100.00
9257;BME280;4665;51.368;6.782;2023-04-07T09:56:18;101394.97;;;8.16;100.00
9257;BME280;4665;51.368;6.782;2023-04-07T09:58:47;101402.44;;;8.22;100.00
9257;BME280;4665;51.368;6.782;2023-04-07T10:01:14;101404.63;;;8.17;100.00
9257;BME280;4665;51.368;6.782;2023-04-07T10:03:42;101406.56;;;8.15;100.00
9257;BME280;4665;51.368;6.782;2023-04-07T10:06:07;101399.53;;;8.14;100.00
9257;BME280;4665;51.368;6.782;2023-04-07T10:08:35;101399.91;;;8.20;100.00
9257;BME280;4665;51.368;6.782;2023-04-07T10:11:02;101401.81;;;8.18;100.00
9257;BME280;4665;51.368;6.782;2023-04-07T10:13:29;101396.41;;;8.09;100.00
9257;BME280;4665;51.368;6.782;2023-04-07T10:15:55;101414.63;;;8.13;100.00
9257;BME280;4665;51.368;6.782;2023-04-07T10:18:21;101404.84;;;8.14;100.00
9257;BME280;4665;51.368;6.782;2023-04-07T10:20:50;101411.13;;;8.13;100.00
9257;BME280;4665;51.368;6.782;2023-04-07T10:26:17;101407.41;;;8.15;100.00
9257;BME280;4665;51.368;6.782;2023-04-07T10:28:47;101412.78;;;8.25;100.00
9257;BME280;4665;51.368;6.782;2023-04-07T10:31:15;101408.22;;;8.27;100.00
9257;BME280;4665;51.368;6.782;2023-04-07T10:33:46;101413.97;;;8.32;100.00
9257;BME280;4665;51.368;6.782;2023-04-07T10:36:12;101417.63;;;8.31;100.00
9257;BME280;4665;51.368;6.782;2023-04-07T10:38:38;101418.72;;;8.29;100.00
9257;BME280;4665;51.368;6.782;2023-04-07T10:41:39;101416.75;;;8.31;100.00
9257;BME280;4665;51.368;6.782;2023-04-07T10:44:06;101420.75;;;8.36;100.00
9257;BME280;4665;51.368;6.782;2023-04-07T10:49:10;101414.34;;;8.28;100.00
9257;BME280;4665;51.368;6.782;2023-04-07T10:51:37;101421.00;;;8.33;100.00
9257;BME280;4665;51.368;6.782;2023-04-07T10:54:19;101423.16;;;8.28;100.00
9257;BME280;4665;51.368;6.782;2023-04-07T10:59:27;101428.09;;;8.33;100.00
9257;BME280;4665;51.368;6.782;2023-04-07T11:04:41;101420.28;;;8.42;100.00
9257;BME280;4665;51.368;6.782;2023-04-07T11:07:08;101426.44;;;8.43;100.00
9257;BME280;4665;51.368;6.782;2023-04-07T11:09:33;101431.22;;;8.49;100.00
9257;BME280;4665;51.368;6.782;2023-04-07T11:11:59;101426.91;;;8.48;100.00
9257;BME280;4665;51.368;6.782;2023-04-07T11:14:28;101430.47;;;8.58;100.00
9257;BME280;4665;51.368;6.782;2023-04-07T11:16:54;101435.16;;;8.66;100.00
9257;BME280;4665;51.368;6.782;2023-04-07T11:19:20;101437.66;;;8.79;100.00
9257;BME280;4665;51.368;6.782;2023-04-07T11:21:45;101435.72;;;8.81;100.00
9257;BME280;4665;51.368;6.782;2023-04-07T11:24:34;101434.75;;;8.82;100.00
9257;BME280;4665;51.368;6.782;2023-04-07T11:27:02;101435.53;;;8.94;100.00
9257;BME280;4665;51.368;6.782;2023-04-07T11:29:28;101424.97;;;9.03;100.00
9257;BME280;4665;51.368;6.782;2023-04-07T11:31:57;101425.22;;;9.00;100.00
9257;BME280;4665;51.368;6.782;2023-04-07T11:34:28;101437.88;;;9.08;100.00
9257;BME280;4665;51.368;6.782;2023-04-07T11:36:54;101433.28;;;9.10;100.00
9257;BME280;4665;51.368;6.782;2023-04-07T11:39:24;101430.81;;;9.18;100.00
9257;BME280;4665;51.368;6.782;2023-04-07T11:41:52;101439.94;;;9.25;100.00
9257;BME280;4665;51.368;6.782;2023-04-07T11:44:18;101435.56;;;9.36;100.00
9257;BME280;4665;51.368;6.782;2023-04-07T11:49:22;101431.47;;;9.32;100.00
9257;BME280;4665;51.368;6.782;2023-04-07T11:52:00;101436.28;;;9.38;100.00
9257;BME280;4665;51.368;6.782;2023-04-07T11:54:26;101435.94;;;9.52;100.00
9257;BME280;4665;51.368;6.782;2023-04-07T11:56:52;101444.63;;;9.54;100.00
9257;BME280;4665;51.368;6.782;2023-04-07T11:59:21;101445.72;;;9.52;100.00
9257;BME280;4665;51.368;6.782;2023-04-07T12:01:48;101447.53;;;9.51;100.00
9257;BME280;4665;51.368;6.782;2023-04-07T12:04:14;101458.44;;;9.48;100.00
9257;BME280;4665;51.368;6.782;2023-04-07T12:06:40;101450.97;;;9.42;100.00
9257;BME280;4665;51.368;6.782;2023-04-07T12:09:28;101450.06;;;9.32;100.00
9257;BME280;4665;51.368;6.782;2023-04-07T12:11:54;101454.28;;;9.34;100.00
9257;BME280;4665;51.368;6.782;2023-04-07T12:14:20;101461.56;;;9.32;100.00
9257;BME280;4665;51.368;6.782;2023-04-07T12:16:45;101469.69;;;9.31;100.00
9257;BME280;4665;51.368;6.782;2023-04-07T12:19:11;101470.63;;;9.30;100.00
9257;BME280;4665;51.368;6.782;2023-04-07T12:21:37;101473.50;;;9.38;100.00
9257;BME280;4665;51.368;6.782;2023-04-07T12:24:02;101467.97;;;9.30;100.00
9257;BME280;4665;51.368;6.782;2023-04-07T12:26:28;101473.28;;;9.30;100.00
9257;BME280;4665;51.368;6.782;2023-04-07T12:28:53;101483.81;;;9.31;100.00
9257;BME280;4665;51.368;6.782;2023-04-07T12:31:19;101474.06;;;9.20;100.00
9257;BME280;4665;51.368;6.782;2023-04-07T12:33:45;101479.97;;;9.24;100.00
9257;BME280;4665;51.368;6.782;2023-04-07T12:36:10;101487.09;;;9.23;100.00
9257;BME280;4665;51.368;6.782;2023-04-07T12:38:36;101481.31;;;9.18;100.00
9257;BME280;4665;51.368;6.782;2023-04-07T12:41:04;101482.44;;;9.16;100.00
9257;BME280;4665;51.368;6.782;2023-04-07T12:43:30;101483.19;;;9.06;100.00
9257;BME280;4665;51.368;6.782;2023-04-07T12:45:55;101482.94;;;9.10;100.00
9257;BME280;4665;51.368;6.782;2023-04-07T12:48:21;101497.41;;;9.17;100.00
9257;BME280;4665;51.368;6.782;2023-04-07T12:50:47;101498.09;;;9.19;100.00
9257;BME280;4665;51.368;6.782;2023-04-07T12:53:13;101502.97;;;9.14;100.00
9257;BME280;4665;51.368;6.782;2023-04-07T12:55:38;101498.56;;;9.03;100.00
9257;BME280;4665;51.368;6.782;2023-04-07T12:58:04;101498.88;;;9.10;100.00
9257;BME280;4665;51.368;6.782;2023-04-07T13:00:29;101501.78;;;9.06;100.00
9257;BME280;4665;51.368;6.782;2023-04-07T13:02:55;101497.81;;;9.12;100.00
9257;BME280;4665;51.368;6.782;2023-04-07T13:05:21;101505.41;;;9.17;100.00
9257;BME280;4665;51.368;6.782;2023-04-07T13:07:47;101497.84;;;9.01;100.00
9257;BME280;4665;51.368;6.782;2023-04-07T13:10:12;101507.94;;;9.07;100.00
9257;BME280;4665;51.368;6.782;2023-04-07T13:12:37;101499.13;;;9.06;100.00
9257;BME280;4665;51.368;6.782;2023-04-07T13:15:04;101506.63;;;9.13;100.00
9257;BME280;4665;51.368;6.782;2023-04-07T13:17:31;101513.22;;;9.18;100.00
9257;BME280;4665;51.368;6.782;2023-04-07T13:19:56;101515.44;;;9.13;100.00
9257;BME280;4665;51.368;6.782;2023-04-07T13:22:22;101514.59;;;9.13;100.00
9257;BME280;4665;51.368;6.782;2023-04-07T13:24:48;101514.00;;;9.09;100.00
9257;BME280;4665;51.368;6.782;2023-04-07T13:27:13;101514.00;;;9.09;100.00